sensor_id;sensor_type;location;lat;lon;timestamp;temperature;humidity
2997;DHT22;1508;48.744;9.110;2022-12-29T00:01:29;8.80;99.90
2997;DHT22;1508;48.744;9.110;2022-12-29T00:04:15;8.90;99.90
2997;DHT22;1508;48.744;9.110;2022-12-29T00:07:01;8.90;99.90
2997;DHT22;1508;48.744;9.110;2022-12-29T00:09:47;9.00;99.90
2997;DHT22;1508;48.744;9.110;2022-12-29T00:12:33;9.00;99.90
2997;DHT22;1508;48.744;9.110;2022-12-29T00:15:18;9.10;99.90
2997;DHT22;1508;48.744;9.110;2022-12-29T00:18:05;9.10;99.90
2997;DHT22;1508;48.744;9.110;2022-12-29T00:20:54;9.10;99.90
2997;DHT22;1508;48.744;9.110;2022-12-29T00:23:40;9.10;99.90
2997;DHT22;1508;48.744;9.110;2022-12-29T00:26:26;9.20;99.90
2997;DHT22;1508;48.744;9.110;2022-12-29T00:29:12;9.20;99.90
2997;DHT22;1508;48.744;9.110;2022-12-29T00:31:58;9.20;99.90
2997;DHT22;1508;48.744;9.110;2022-12-29T00:34:44;9.20;99.90
2997;DHT22;1508;48.744;9.110;2022-12-29T00:37:29;9.30;99.90
2997;DHT22;1508;48.744;9.110;2022-12-29T00:40:15;9.30;99.90
2997;DHT22;1508;48.744;9.110;2022-12-29T00:43:01;9.30;99.90
2997;DHT22;1508;48.744;9.110;2022-12-29T00:45:47;9.30;99.90
2997;DHT22;1508;48.744;9.110;2022-12-29T00:48:33;9.30;99.90
2997;DHT22;1508;48.744;9.110;2022-12-29T00:51:19;9.30;99.90
2997;DHT22;1508;48.744;9.110;2022-12-29T00:54:04;9.40;99.90
2997;DHT22;1508;48.744;9.110;2022-12-29T00:56:51;9.40;99.90
2997;DHT22;1508;48.744;9.110;2022-12-29T00:59:39;9.40;99.90
2997;DHT22;1508;48.744;9.110;2022-12-29T01:02:25;9.30;99.90
2997;DHT22;1508;48.744;9.110;2022-12-29T01:05:11;9.30;99.90
2997;DHT22;1508;48.744;9.110;2022-12-29T01:07:57;9.40;99.90
2997;DHT22;1508;48.744;9.110;2022-12-29T01:10:42;9.40;99.90
2997;DHT22;1508;48.744;9.110;2022-12-29T01:13:28;9.40;99.90
2997;DHT22;1508;48.744;9.110;2022-12-29T01:16:14;9.50;99.90
2997;DHT22;1508;48.744;9.110;2022-12-29T01:19:00;9.50;99.90
2997;DHT22;1508;48.744;9.110;2022-12-29T01:21:46;9.50;99.90
2997;DHT22;1508;48.744;9.110;2022-12-29T01:24:32;9.50;99.90
2997;DHT22;1508;48.744;9.110;2022-12-29T01:27:18;9.60;99.90
2997;DHT22;1508;48.744;9.110;2022-12-29T01:30:04;9.60;99.90
2997;DHT22;1508;48.744;9.110;2022-12-29T01:32:50;9.60;99.90
2997;DHT22;1508;48.744;9.110;2022-12-29T01:35:36;9.70;99.90
2997;DHT22;1508;48.744;9.110;2022-12-29T01:38:22;9.70;99.90
2997;DHT22;1508;48.744;9.110;2022-12-29T01:41:10;9.70;99.90
2997;DHT22;1508;48.744;9.110;2022-12-29T01:43:58;9.80;99.90
2997;DHT22;1508;48.744;9.110;2022-12-29T01:46:46;9.80;99.90
2997;DHT22;1508;48.744;9.110;2022-12-29T01:49:34;9.80;99.90
2997;DHT22;1508;48.744;9.110;2022-12-29T01:52:20;9.80;99.90
2997;DHT22;1508;48.744;9.110;2022-12-29T01:55:09;9.90;99.90
2997;DHT22;1508;48.744;9.110;2022-12-29T01:57:59;9.90;99.90
2997;DHT22;1508;48.744;9.110;2022-12-29T02:00:46;10.00;99.90
2997;DHT22;1508;48.744;9.110;2022-12-29T02:03:32;10.00;99.90
2997;DHT22;1508;48.744;9.110;2022-12-29T02:06:22;10.00;99.90
2997;DHT22;1508;48.744;9.110;2022-12-29T02:09:09;10.00;99.90
2997;DHT22;1508;48.744;9.110;2022-12-29T02:11:55;10.00;99.90
2997;DHT22;1508;48.744;9.110;2022-12-29T02:14:42;10.10;99.90
2997;DHT22;1508;48.744;9.110;2022-12-29T02:18:02;10.00;99.90
2997;DHT22;1508;48.744;9.110;2022-12-29T02:24:16;10.00;99.90
2997;DHT22;1508;48.744;9.110;2022-12-29T02:39:40;10.00;99.90
2997;DHT22;1508;48.744;9.110;2022-12-29T02:42:51;10.10;99.90
2997;DHT22;1508;48.744;9.110;2022-12-29T02:45:53;10.10;99.90
2997;DHT22;1508;48.744;9.110;2022-12-29T02:48:54;10.10;99.90
2997;DHT22;1508;48.744;9.110;2022-12-29T02:52:18;10.10;99.90
2997;DHT22;1508;48.744;9.110;2022-12-29T02:55:05;10.20;99.90
2997;DHT22;1508;48.744;9.110;2022-12-29T02:58:17;10.20;99.90
2997;DHT22;1508;48.744;9.110;2022-12-29T03:01:23;10.20;99.90
2997;DHT22;1508;48.744;9.110;2022-12-29T03:04:37;10.20;99.90
2997;DHT22;1508;48.744;9.110;2022-12-29T03:13:52;10.30;99.90
2997;DHT22;1508;48.744;9.110;2022-12-29T03:16:55;10.30;99.90
2997;DHT22;1508;48.744;9.110;2022-12-29T03:19:47;10.30;99.90
2997;DHT22;1508;48.744;9.110;2022-12-29T03:22:38;10.40;99.90
2997;DHT22;1508;48.744;9.110;2022-12-29T03:25:31;10.40;99.90
2997;DHT22;1508;48.744;9.110;2022-12-29T03:28:54;10.50;99.90
2997;DHT22;1508;48.744;9.110;2022-12-29T03:31:34;10.60;99.90
2997;DHT22;1508;48.744;9.110;2022-12-29T03:34:22;10.60;99.90
2997;DHT22;1508;48.744;9.110;2022-12-29T03:37:20;10.60;99.90
2997;DHT22;1508;48.744;9.110;2022-12-29T03:40:08;10.70;99.90
2997;DHT22;1508;48.744;9.110;2022-12-29T03:42:54;10.70;99.90
2997;DHT22;1508;48.744;9.110;2022-12-29T03:45:40;10.70;99.90
2997;DHT22;1508;48.744;9.110;2022-12-29T03:48:26;10.70;99.90
2997;DHT22;1508;48.744;9.110;2022-12-29T03:51:12;10.70;99.90
2997;DHT22;1508;48.744;9.110;2022-12-29T03:53:58;10.70;99.90
2997;DHT22;1508;48.744;9.110;2022-12-29T03:56:44;10.70;99.90
2997;DHT22;1508;48.744;9.110;2022-12-29T03:59:30;10.70;99.90
2997;DHT22;1508;48.744;9.110;2022-12-29T04:02:15;10.70;99.90
2997;DHT22;1508;48.744;9.110;2022-12-29T04:05:01;10.60;99.90
2997;DHT22;1508;48.744;9.110;2022-12-29T04:07:47;10.60;99.90
2997;DHT22;1508;48.744;9.110;2022-12-29T04:10:33;10.50;99.90
2997;DHT22;1508;48.744;9.110;2022-12-29T04:13:19;10.50;99.90
2997;DHT22;1508;48.744;9.110;2022-12-29T04:16:05;10.50;99.90
2997;DHT22;1508;48.744;9.110;2022-12-29T04:18:51;10.40;99.90
2997;DHT22;1508;48.744;9.110;2022-12-29T04:21:37;10.40;99.90
2997;DHT22;1508;48.744;9.110;2022-12-29T04:24:23;10.40;99.90
2997;DHT22;1508;48.744;9.110;2022-12-29T04:27:08;10.40;99.90
2997;DHT22;1508;48.744;9.110;2022-12-29T04:29:54;10.30;99.90
2997;DHT22;1508;48.744;9.110;2022-12-29T04:32:40;10.30;99.90
2997;DHT22;1508;48.744;9.110;2022-12-29T04:35:26;10.30;99.90
2997;DHT22;1508;48.744;9.110;2022-12-29T04:38:12;10.40;99.90
2997;DHT22;1508;48.744;9.110;2022-12-29T04:41:01;10.40;99.90
2997;DHT22;1508;48.744;9.110;2022-12-29T04:43:47;10.40;99.90
2997;DHT22;1508;48.744;9.110;2022-12-29T04:46:33;10.40;99.90
2997;DHT22;1508;48.744;9.110;2022-12-29T04:49:19;10.40;99.90
2997;DHT22;1508;48.744;9.110;2022-12-29T04:52:05;10.40;99.90
2997;DHT22;1508;48.744;9.110;2022-12-29T04:54:50;10.40;99.90
2997;DHT22;1508;48.744;9.110;2022-12-29T04:57:36;10.40;99.90
2997;DHT22;1508;48.744;9.110;2022-12-29T05:00:22;10.50;99.90
2997;DHT22;1508;48.744;9.110;2022-12-29T05:03:08;10.50;99.90
2997;DHT22;1508;48.744;9.110;2022-12-29T05:05:55;10.60;99.90
2997;DHT22;1508;48.744;9.110;2022-12-29T05:08:41;10.60;99.90
2997;DHT22;1508;48.744;9.110;2022-12-29T05:11:27;10.60;99.90
2997;DHT22;1508;48.744;9.110;2022-12-29T05:14:13;10.50;99.90
2997;DHT22;1508;48.744;9.110;2022-12-29T05:16:58;10.50;99.90
2997;DHT22;1508;48.744;9.110;2022-12-29T05:19:44;10.50;99.90
2997;DHT22;1508;48.744;9.110;2022-12-29T05:22:30;10.40;99.90
2997;DHT22;1508;48.744;9.110;2022-12-29T05:25:16;10.40;99.90
2997;DHT22;1508;48.744;9.110;2022-12-29T05:28:02;10.30;99.90
2997;DHT22;1508;48.744;9.110;2022-12-29T05:30:49;10.30;99.90
2997;DHT22;1508;48.744;9.110;2022-12-29T05:33:35;10.30;99.90
2997;DHT22;1508;48.744;9.110;2022-12-29T05:36:21;10.20;99.90
2997;DHT22;1508;48.744;9.110;2022-12-29T05:39:07;10.30;99.90
2997;DHT22;1508;48.744;9.110;2022-12-29T05:41:52;10.20;99.90
2997;DHT22;1508;48.744;9.110;2022-12-29T05:44:38;10.20;99.90
2997;DHT22;1508;48.744;9.110;2022-12-29T05:47:24;10.20;99.90
2997;DHT22;1508;48.744;9.110;2022-12-29T05:50:10;10.30;99.90
2997;DHT22;1508;48.744;9.110;2022-12-29T05:52:56;10.30;99.90
2997;DHT22;1508;48.744;9.110;2022-12-29T05:55:42;10.30;99.90
2997;DHT22;1508;48.744;9.110;2022-12-29T05:58:28;10.40;99.90
2997;DHT22;1508;48.744;9.110;2022-12-29T06:01:14;10.40;99.90
2997;DHT22;1508;48.744;9.110;2022-12-29T06:04:00;10.50;99.90
2997;DHT22;1508;48.744;9.110;2022-12-29T06:06:46;10.50;99.90
2997;DHT22;1508;48.744;9.110;2022-12-29T06:09:32;10.50;99.90
2997;DHT22;1508;48.744;9.110;2022-12-29T06:12:18;10.50;99.90
2997;DHT22;1508;48.744;9.110;2022-12-29T06:15:04;10.40;99.90
2997;DHT22;1508;48.744;9.110;2022-12-29T06:17:50;10.40;99.90
2997;DHT22;1508;48.744;9.110;2022-12-29T06:20:36;10.40;99.90
2997;DHT22;1508;48.744;9.110;2022-12-29T06:23:22;10.30;99.90
2997;DHT22;1508;48.744;9.110;2022-12-29T06:26:07;10.30;99.90
2997;DHT22;1508;48.744;9.110;2022-12-29T06:28:53;10.30;99.90
2997;DHT22;1508;48.744;9.110;2022-12-29T06:31:39;10.40;99.90
2997;DHT22;1508;48.744;9.110;2022-12-29T06:34:25;10.40;99.90
2997;DHT22;1508;48.744;9.110;2022-12-29T06:37:11;10.40;99.90
2997;DHT22;1508;48.744;9.110;2022-12-29T06:39:57;10.50;99.90
2997;DHT22;1508;48.744;9.110;2022-12-29T06:42:43;10.50;99.90
2997;DHT22;1508;48.744;9.110;2022-12-29T06:45:29;10.50;99.90
2997;DHT22;1508;48.744;9.110;2022-12-29T06:48:15;10.50;99.90
2997;DHT22;1508;48.744;9.110;2022-12-29T06:51:00;10.50;99.90
2997;DHT22;1508;48.744;9.110;2022-12-29T06:53:46;10.50;99.90
2997;DHT22;1508;48.744;9.110;2022-12-29T06:56:32;10.50;99.90
2997;DHT22;1508;48.744;9.110;2022-12-29T06:59:18;10.50;99.90
2997;DHT22;1508;48.744;9.110;2022-12-29T07:02:04;10.50;99.90
2997;DHT22;1508;48.744;9.110;2022-12-29T07:04:53;10.40;99.90
2997;DHT22;1508;48.744;9.110;2022-12-29T07:07:39;10.30;99.90
2997;DHT22;1508;48.744;9.110;2022-12-29T07:10:24;10.30;99.90
2997;DHT22;1508;48.744;9.110;2022-12-29T07:13:10;10.20;99.90
2997;DHT22;1508;48.744;9.110;2022-12-29T07:15:56;10.20;99.90
2997;DHT22;1508;48.744;9.110;2022-12-29T07:18:42;10.20;99.90
2997;DHT22;1508;48.744;9.110;2022-12-29T07:21:28;10.20;99.90
2997;DHT22;1508;48.744;9.110;2022-12-29T07:24:14;10.20;99.90
2997;DHT22;1508;48.744;9.110;2022-12-29T07:26:59;10.20;99.90
2997;DHT22;1508;48.744;9.110;2022-12-29T07:29:45;10.20;99.90
2997;DHT22;1508;48.744;9.110;2022-12-29T07:32:35;10.10;99.90
2997;DHT22;1508;48.744;9.110;2022-12-29T07:35:20;10.10;99.90
2997;DHT22;1508;48.744;9.110;2022-12-29T07:38:06;10.20;99.90
2997;DHT22;1508;48.744;9.110;2022-12-29T07:40:56;10.20;99.90
2997;DHT22;1508;48.744;9.110;2022-12-29T07:43:42;10.20;99.90
2997;DHT22;1508;48.744;9.110;2022-12-29T07:46:31;10.20;99.90
2997;DHT22;1508;48.744;9.110;2022-12-29T07:49:17;10.20;99.90
2997;DHT22;1508;48.744;9.110;2022-12-29T07:52:03;10.20;99.90
2997;DHT22;1508;48.744;9.110;2022-12-29T07:54:49;10.30;99.90
2997;DHT22;1508;48.744;9.110;2022-12-29T07:57:35;10.40;99.90
2997;DHT22;1508;48.744;9.110;2022-12-29T08:00:21;10.50;99.90
2997;DHT22;1508;48.744;9.110;2022-12-29T08:03:07;10.50;99.90
2997;DHT22;1508;48.744;9.110;2022-12-29T08:05:53;10.50;99.90
2997;DHT22;1508;48.744;9.110;2022-12-29T08:08:39;10.50;99.90
2997;DHT22;1508;48.744;9.110;2022-12-29T08:11:25;10.50;99.90
2997;DHT22;1508;48.744;9.110;2022-12-29T08:14:10;10.50;99.90
2997;DHT22;1508;48.744;9.110;2022-12-29T08:16:56;10.60;99.90
2997;DHT22;1508;48.744;9.110;2022-12-29T08:19:42;10.60;99.90
2997;DHT22;1508;48.744;9.110;2022-12-29T08:22:28;10.60;99.90
2997;DHT22;1508;48.744;9.110;2022-12-29T08:25:14;10.70;99.90
2997;DHT22;1508;48.744;9.110;2022-12-29T08:28:00;10.70;99.90
2997;DHT22;1508;48.744;9.110;2022-12-29T08:30:45;10.70;99.90
2997;DHT22;1508;48.744;9.110;2022-12-29T08:33:31;10.70;99.90
2997;DHT22;1508;48.744;9.110;2022-12-29T08:36:17;10.80;99.90
2997;DHT22;1508;48.744;9.110;2022-12-29T08:39:04;10.80;99.90
2997;DHT22;1508;48.744;9.110;2022-12-29T08:41:49;10.80;99.90
2997;DHT22;1508;48.744;9.110;2022-12-29T08:44:35;10.80;99.90
2997;DHT22;1508;48.744;9.110;2022-12-29T08:47:21;10.80;99.90
2997;DHT22;1508;48.744;9.110;2022-12-29T08:50:07;10.70;99.90
2997;DHT22;1508;48.744;9.110;2022-12-29T08:52:53;10.70;99.90
2997;DHT22;1508;48.744;9.110;2022-12-29T08:55:39;10.70;99.90
2997;DHT22;1508;48.744;9.110;2022-12-29T08:58:25;10.70;99.90
2997;DHT22;1508;48.744;9.110;2022-12-29T09:01:12;10.70;99.90
2997;DHT22;1508;48.744;9.110;2022-12-29T09:03:57;10.70;99.90
2997;DHT22;1508;48.744;9.110;2022-12-29T09:06:44;10.70;99.90
2997;DHT22;1508;48.744;9.110;2022-12-29T09:09:30;10.80;99.90
2997;DHT22;1508;48.744;9.110;2022-12-29T09:12:17;11.20;99.90
2997;DHT22;1508;48.744;9.110;2022-12-29T09:15:03;11.50;99.90
2997;DHT22;1508;48.744;9.110;2022-12-29T09:17:50;11.30;99.90
2997;DHT22;1508;48.744;9.110;2022-12-29T09:20:35;11.30;99.90
2997;DHT22;1508;48.744;9.110;2022-12-29T09:23:21;11.30;99.90
2997;DHT22;1508;48.744;9.110;2022-12-29T09:26:08;11.30;99.90
2997;DHT22;1508;48.744;9.110;2022-12-29T09:28:54;11.30;99.90
2997;DHT22;1508;48.744;9.110;2022-12-29T09:31:39;11.40;99.90
2997;DHT22;1508;48.744;9.110;2022-12-29T09:34:25;11.50;99.90
2997;DHT22;1508;48.744;9.110;2022-12-29T09:37:11;11.60;99.90
2997;DHT22;1508;48.744;9.110;2022-12-29T09:39:57;11.80;99.90
2997;DHT22;1508;48.744;9.110;2022-12-29T09:46:07;12.00;99.90
2997;DHT22;1508;48.744;9.110;2022-12-29T09:52:30;12.20;99.90
2997;DHT22;1508;48.744;9.110;2022-12-29T09:55:23;12.30;99.90
2997;DHT22;1508;48.744;9.110;2022-12-29T09:58:30;12.50;99.90
2997;DHT22;1508;48.744;9.110;2022-12-29T10:01:35;12.50;99.90
2997;DHT22;1508;48.744;9.110;2022-12-29T10:04:21;12.50;99.90
2997;DHT22;1508;48.744;9.110;2022-12-29T10:07:41;12.50;99.90
2997;DHT22;1508;48.744;9.110;2022-12-29T10:10:54;12.40;99.90
2997;DHT22;1508;48.744;9.110;2022-12-29T10:23:02;12.70;99.90
2997;DHT22;1508;48.744;9.110;2022-12-29T10:25:51;12.70;99.90
2997;DHT22;1508;48.744;9.110;2022-12-29T10:31:34;12.80;99.90
2997;DHT22;1508;48.744;9.110;2022-12-29T10:34:38;12.80;99.90
2997;DHT22;1508;48.744;9.110;2022-12-29T10:40:38;12.70;99.90
2997;DHT22;1508;48.744;9.110;2022-12-29T10:43:29;12.80;99.90
2997;DHT22;1508;48.744;9.110;2022-12-29T10:46:24;13.00;99.90
2997;DHT22;1508;48.744;9.110;2022-12-29T10:49:16;13.20;99.90
2997;DHT22;1508;48.744;9.110;2022-12-29T10:52:03;13.30;99.90
2997;DHT22;1508;48.744;9.110;2022-12-29T10:57:45;14.10;99.90
2997;DHT22;1508;48.744;9.110;2022-12-29T11:00:32;14.30;99.90
2997;DHT22;1508;48.744;9.110;2022-12-29T11:06:28;14.10;99.90
2997;DHT22;1508;48.744;9.110;2022-12-29T11:09:18;13.90;99.90
2997;DHT22;1508;48.744;9.110;2022-12-29T11:12:25;13.70;99.90
2997;DHT22;1508;48.744;9.110;2022-12-29T11:15:14;13.60;99.90
2997;DHT22;1508;48.744;9.110;2022-12-29T11:18:00;13.50;99.90
2997;DHT22;1508;48.744;9.110;2022-12-29T11:20:47;13.50;99.90
2997;DHT22;1508;48.744;9.110;2022-12-29T11:23:38;13.50;99.90
2997;DHT22;1508;48.744;9.110;2022-12-29T11:26:26;13.40;99.90
2997;DHT22;1508;48.744;9.110;2022-12-29T11:29:28;13.30;99.90
2997;DHT22;1508;48.744;9.110;2022-12-29T11:32:22;13.10;99.90
2997;DHT22;1508;48.744;9.110;2022-12-29T11:35:30;13.00;99.90
2997;DHT22;1508;48.744;9.110;2022-12-29T11:38:20;13.00;99.90
2997;DHT22;1508;48.744;9.110;2022-12-29T11:41:11;12.80;99.90
2997;DHT22;1508;48.744;9.110;2022-12-29T11:44:01;12.70;99.90
2997;DHT22;1508;48.744;9.110;2022-12-29T11:46:50;12.60;99.90
2997;DHT22;1508;48.744;9.110;2022-12-29T11:49:36;12.60;99.90
2997;DHT22;1508;48.744;9.110;2022-12-29T11:52:25;12.60;99.90
2997;DHT22;1508;48.744;9.110;2022-12-29T11:55:21;12.60;99.90
2997;DHT22;1508;48.744;9.110;2022-12-29T11:58:13;12.50;99.90
2997;DHT22;1508;48.744;9.110;2022-12-29T12:01:37;12.40;99.90
2997;DHT22;1508;48.744;9.110;2022-12-29T12:04:27;12.40;99.90
2997;DHT22;1508;48.744;9.110;2022-12-29T12:07:29;12.40;99.90
2997;DHT22;1508;48.744;9.110;2022-12-29T12:10:29;12.40;99.90
2997;DHT22;1508;48.744;9.110;2022-12-29T12:13:34;12.30;99.90
2997;DHT22;1508;48.744;9.110;2022-12-29T12:16:27;12.20;99.90
2997;DHT22;1508;48.744;9.110;2022-12-29T12:19:32;12.20;99.90
2997;DHT22;1508;48.744;9.110;2022-12-29T12:22:27;12.20;99.90
2997;DHT22;1508;48.744;9.110;2022-12-29T12:25:23;12.20;99.90
2997;DHT22;1508;48.744;9.110;2022-12-29T12:34:37;12.20;99.90
2997;DHT22;1508;48.744;9.110;2022-12-29T12:37:58;12.30;99.90
2997;DHT22;1508;48.744;9.110;2022-12-29T12:40:58;12.20;99.90
2997;DHT22;1508;48.744;9.110;2022-12-29T12:44:17;12.00;99.90
2997;DHT22;1508;48.744;9.110;2022-12-29T12:50:20;11.80;99.90
2997;DHT22;1508;48.744;9.110;2022-12-29T12:56:22;11.70;99.90
2997;DHT22;1508;48.744;9.110;2022-12-29T13:03:10;11.80;99.90
2997;DHT22;1508;48.744;9.110;2022-12-29T13:09:04;12.30;99.90
2997;DHT22;1508;48.744;9.110;2022-12-29T13:18:13;12.30;99.90
2997;DHT22;1508;48.744;9.110;2022-12-29T13:30:15;12.40;99.90
2997;DHT22;1508;48.744;9.110;2022-12-29T13:36:29;12.10;99.90
2997;DHT22;1508;48.744;9.110;2022-12-29T13:39:24;12.00;99.90
2997;DHT22;1508;48.744;9.110;2022-12-29T13:42:12;12.00;99.90
2997;DHT22;1508;48.744;9.110;2022-12-29T13:45:06;12.00;99.90
2997;DHT22;1508;48.744;9.110;2022-12-29T13:48:06;12.00;99.90
2997;DHT22;1508;48.744;9.110;2022-12-29T13:50:58;11.90;99.90
2997;DHT22;1508;48.744;9.110;2022-12-29T13:56:49;12.00;99.90
2997;DHT22;1508;48.744;9.110;2022-12-29T14:05:32;11.80;99.90
2997;DHT22;1508;48.744;9.110;2022-12-29T14:08:18;11.90;99.90
2997;DHT22;1508;48.744;9.110;2022-12-29T14:11:11;11.90;99.90
2997;DHT22;1508;48.744;9.110;2022-12-29T14:13:57;12.00;99.90
2997;DHT22;1508;48.744;9.110;2022-12-29T14:16:44;12.00;99.90
2997;DHT22;1508;48.744;9.110;2022-12-29T14:19:32;12.00;99.90
2997;DHT22;1508;48.744;9.110;2022-12-29T14:22:24;11.90;99.90
2997;DHT22;1508;48.744;9.110;2022-12-29T14:43:13;11.80;99.90
2997;DHT22;1508;48.744;9.110;2022-12-29T14:46:01;11.70;99.90
2997;DHT22;1508;48.744;9.110;2022-12-29T14:48:47;11.60;99.90
2997;DHT22;1508;48.744;9.110;2022-12-29T14:51:39;11.50;99.90
2997;DHT22;1508;48.744;9.110;2022-12-29T14:57:39;11.50;99.90
2997;DHT22;1508;48.744;9.110;2022-12-29T15:00:36;11.50;99.90
2997;DHT22;1508;48.744;9.110;2022-12-29T15:03:31;11.50;99.90
2997;DHT22;1508;48.744;9.110;2022-12-29T15:06:18;11.40;99.90
2997;DHT22;1508;48.744;9.110;2022-12-29T15:09:12;11.30;99.90
2997;DHT22;1508;48.744;9.110;2022-12-29T15:15:20;11.20;99.90
2997;DHT22;1508;48.744;9.110;2022-12-29T15:18:26;11.20;99.90
2997;DHT22;1508;48.744;9.110;2022-12-29T15:21:14;11.10;99.90
2997;DHT22;1508;48.744;9.110;2022-12-29T15:24:02;11.10;99.90
2997;DHT22;1508;48.744;9.110;2022-12-29T15:26:50;11.00;99.90
2997;DHT22;1508;48.744;9.110;2022-12-29T15:29:42;11.00;99.90
2997;DHT22;1508;48.744;9.110;2022-12-29T15:32:38;11.00;99.90
2997;DHT22;1508;48.744;9.110;2022-12-29T15:35:33;11.00;99.90
2997;DHT22;1508;48.744;9.110;2022-12-29T15:38:23;10.90;99.90
2997;DHT22;1508;48.744;9.110;2022-12-29T15:44:37;10.90;99.90
2997;DHT22;1508;48.744;9.110;2022-12-29T15:47:26;10.90;99.90
2997;DHT22;1508;48.744;9.110;2022-12-29T15:50:36;11.00;99.90
2997;DHT22;1508;48.744;9.110;2022-12-29T15:53:30;11.00;99.90
2997;DHT22;1508;48.744;9.110;2022-12-29T15:56:18;11.10;99.90
2997;DHT22;1508;48.744;9.110;2022-12-29T15:59:03;11.10;99.90
2997;DHT22;1508;48.744;9.110;2022-12-29T16:01:50;11.10;99.90
2997;DHT22;1508;48.744;9.110;2022-12-29T16:04:36;10.70;99.90
2997;DHT22;1508;48.744;9.110;2022-12-29T16:10:28;10.20;99.90
2997;DHT22;1508;48.744;9.110;2022-12-29T16:13:33;10.00;99.90
2997;DHT22;1508;48.744;9.110;2022-12-29T16:16:30;9.80;99.90
2997;DHT22;1508;48.744;9.110;2022-12-29T16:19:33;9.60;99.90
2997;DHT22;1508;48.744;9.110;2022-12-29T16:22:36;9.50;99.90
2997;DHT22;1508;48.744;9.110;2022-12-29T16:25:33;9.40;99.90
2997;DHT22;1508;48.744;9.110;2022-12-29T16:28:22;9.30;99.90
2997;DHT22;1508;48.744;9.110;2022-12-29T16:31:23;9.20;99.90
2997;DHT22;1508;48.744;9.110;2022-12-29T16:37:30;9.20;99.90
2997;DHT22;1508;48.744;9.110;2022-12-29T16:40:29;9.20;99.90
2997;DHT22;1508;48.744;9.110;2022-12-29T16:43:27;9.10;99.90
2997;DHT22;1508;48.744;9.110;2022-12-29T16:46:28;9.10;99.90
2997;DHT22;1508;48.744;9.110;2022-12-29T16:49:16;9.10;99.90
2997;DHT22;1508;48.744;9.110;2022-12-29T16:52:29;9.10;99.90
2997;DHT22;1508;48.744;9.110;2022-12-29T16:55:18;9.10;99.90
2997;DHT22;1508;48.744;9.110;2022-12-29T16:58:05;9.00;99.90
2997;DHT22;1508;48.744;9.110;2022-12-29T17:00:55;9.10;99.90
2997;DHT22;1508;48.744;9.110;2022-12-29T17:03:46;9.00;99.90
2997;DHT22;1508;48.744;9.110;2022-12-29T17:06:33;9.00;99.90
2997;DHT22;1508;48.744;9.110;2022-12-29T17:09:24;8.90;99.90
2997;DHT22;1508;48.744;9.110;2022-12-29T17:12:17;8.90;99.90
2997;DHT22;1508;48.744;9.110;2022-12-29T17:15:18;8.90;99.90
2997;DHT22;1508;48.744;9.110;2022-12-29T17:18:07;8.80;99.90
2997;DHT22;1508;48.744;9.110;2022-12-29T17:20:53;8.80;99.90
2997;DHT22;1508;48.744;9.110;2022-12-29T17:23:38;8.80;99.90
2997;DHT22;1508;48.744;9.110;2022-12-29T17:26:24;8.70;99.90
2997;DHT22;1508;48.744;9.110;2022-12-29T17:29:18;8.70;99.90
2997;DHT22;1508;48.744;9.110;2022-12-29T17:32:09;8.70;99.90
2997;DHT22;1508;48.744;9.110;2022-12-29T17:34:57;8.70;99.90
2997;DHT22;1508;48.744;9.110;2022-12-29T17:37:43;8.70;99.90
2997;DHT22;1508;48.744;9.110;2022-12-29T17:40:31;8.70;99.90
2997;DHT22;1508;48.744;9.110;2022-12-29T17:43:18;8.70;99.90
2997;DHT22;1508;48.744;9.110;2022-12-29T17:46:05;8.80;99.90
2997;DHT22;1508;48.744;9.110;2022-12-29T17:48:51;8.90;99.90
2997;DHT22;1508;48.744;9.110;2022-12-29T17:51:37;8.90;99.90
2997;DHT22;1508;48.744;9.110;2022-12-29T17:54:24;8.90;99.90
2997;DHT22;1508;48.744;9.110;2022-12-29T17:57:13;8.90;99.90
2997;DHT22;1508;48.744;9.110;2022-12-29T17:59:59;8.90;99.90
2997;DHT22;1508;48.744;9.110;2022-12-29T18:02:46;8.90;99.90
2997;DHT22;1508;48.744;9.110;2022-12-29T18:05:32;8.90;99.90
2997;DHT22;1508;48.744;9.110;2022-12-29T18:08:18;8.90;99.90
2997;DHT22;1508;48.744;9.110;2022-12-29T18:11:08;8.90;99.90
2997;DHT22;1508;48.744;9.110;2022-12-29T18:13:59;8.90;99.90
2997;DHT22;1508;48.744;9.110;2022-12-29T18:16:45;8.90;99.90
2997;DHT22;1508;48.744;9.110;2022-12-29T18:19:31;9.00;99.90
2997;DHT22;1508;48.744;9.110;2022-12-29T18:22:17;9.00;99.90
2997;DHT22;1508;48.744;9.110;2022-12-29T18:25:23;9.00;99.90
2997;DHT22;1508;48.744;9.110;2022-12-29T18:28:10;8.90;99.90
2997;DHT22;1508;48.744;9.110;2022-12-29T18:30:57;8.80;99.90
2997;DHT22;1508;48.744;9.110;2022-12-29T18:33:44;8.60;99.90
2997;DHT22;1508;48.744;9.110;2022-12-29T18:36:30;8.50;99.90
2997;DHT22;1508;48.744;9.110;2022-12-29T18:39:16;8.50;99.90
2997;DHT22;1508;48.744;9.110;2022-12-29T18:42:05;8.50;99.90
2997;DHT22;1508;48.744;9.110;2022-12-29T18:44:51;8.50;99.90
2997;DHT22;1508;48.744;9.110;2022-12-29T18:47:37;8.50;99.90
2997;DHT22;1508;48.744;9.110;2022-12-29T18:50:23;8.50;99.90
2997;DHT22;1508;48.744;9.110;2022-12-29T18:53:35;8.50;99.90
2997;DHT22;1508;48.744;9.110;2022-12-29T18:56:22;8.50;99.90
2997;DHT22;1508;48.744;9.110;2022-12-29T18:59:08;8.50;99.90
2997;DHT22;1508;48.744;9.110;2022-12-29T19:01:54;8.50;99.90
2997;DHT22;1508;48.744;9.110;2022-12-29T19:04:40;8.60;99.90
2997;DHT22;1508;48.744;9.110;2022-12-29T19:07:26;8.60;99.90
2997;DHT22;1508;48.744;9.110;2022-12-29T19:10:12;8.60;99.90
2997;DHT22;1508;48.744;9.110;2022-12-29T19:12:58;8.70;99.90
2997;DHT22;1508;48.744;9.110;2022-12-29T19:15:44;8.70;99.90
2997;DHT22;1508;48.744;9.110;2022-12-29T19:18:30;8.60;99.90
2997;DHT22;1508;48.744;9.110;2022-12-29T19:21:16;8.60;99.90
2997;DHT22;1508;48.744;9.110;2022-12-29T19:24:02;8.60;99.90
2997;DHT22;1508;48.744;9.110;2022-12-29T19:26:48;8.50;99.90
2997;DHT22;1508;48.744;9.110;2022-12-29T19:29:33;8.30;99.90
2997;DHT22;1508;48.744;9.110;2022-12-29T19:32:19;8.20;99.90
2997;DHT22;1508;48.744;9.110;2022-12-29T19:35:06;8.20;99.90
2997;DHT22;1508;48.744;9.110;2022-12-29T19:37:52;8.10;99.90
2997;DHT22;1508;48.744;9.110;2022-12-29T19:40:47;8.10;99.90
2997;DHT22;1508;48.744;9.110;2022-12-29T19:43:33;8.10;99.90
2997;DHT22;1508;48.744;9.110;2022-12-29T19:46:19;8.10;99.90
2997;DHT22;1508;48.744;9.110;2022-12-29T19:49:05;8.00;99.90
2997;DHT22;1508;48.744;9.110;2022-12-29T19:51:51;8.00;99.90
2997;DHT22;1508;48.744;9.110;2022-12-29T19:54:37;8.00;99.90
2997;DHT22;1508;48.744;9.110;2022-12-29T19:57:23;7.80;99.90
2997;DHT22;1508;48.744;9.110;2022-12-29T20:00:11;7.80;99.90
2997;DHT22;1508;48.744;9.110;2022-12-29T20:02:57;7.70;99.90
2997;DHT22;1508;48.744;9.110;2022-12-29T20:05:47;7.70;99.90
2997;DHT22;1508;48.744;9.110;2022-12-29T20:08:34;7.70;99.90
2997;DHT22;1508;48.744;9.110;2022-12-29T20:11:20;7.70;99.90
2997;DHT22;1508;48.744;9.110;2022-12-29T20:14:06;7.80;99.90
2997;DHT22;1508;48.744;9.110;2022-12-29T20:16:51;7.80;99.90
2997;DHT22;1508;48.744;9.110;2022-12-29T20:19:38;7.80;99.90
2997;DHT22;1508;48.744;9.110;2022-12-29T20:22:24;7.80;99.90
2997;DHT22;1508;48.744;9.110;2022-12-29T20:25:10;7.90;99.90
2997;DHT22;1508;48.744;9.110;2022-12-29T20:27:55;7.90;99.90
2997;DHT22;1508;48.744;9.110;2022-12-29T20:30:42;7.90;99.90
2997;DHT22;1508;48.744;9.110;2022-12-29T20:33:29;7.80;99.90
2997;DHT22;1508;48.744;9.110;2022-12-29T20:36:25;7.70;99.90
2997;DHT22;1508;48.744;9.110;2022-12-29T20:39:15;7.70;99.90
2997;DHT22;1508;48.744;9.110;2022-12-29T20:42:03;7.60;99.90
2997;DHT22;1508;48.744;9.110;2022-12-29T20:44:49;7.50;99.90